Airfield :
LOGIN :

Register | Disclaimer

   EN    FR    IT 

 










Legend :    VFR   Marginal VFR   IFR   Intensive IFR   Very Intensive IFR
Visi :
Ceiling :
>= 8 km
>= 3000ft
5 to 8 km
1000 to 3000 ft
1500m to 5 km
500 to 1000 ft
800 to 1500m
200 to 500 ft
< 800m
< 200 ft
Symbols :   Thunderstorms  Fog  Heavy snow  Heavy precipitations  Wind > 20 kt
SIGMETs :     Misc.  Thunderstorms  Icing  Turbulence  Mountain Waves  Volcanic Ashes






- Airport Elevation : 2936 ft


LECH - Calamocha

CURRENT METAR :
  • 221330Z AUTO 15007KT 120V190 CAVOK 31/09 Q1012

EXPIRED METARs :
  • 221300Z AUTO 15007KT 110V190 CAVOK 31/11 Q1012
  • 221230Z AUTO 11008KT 080V150 CAVOK 28/17 Q1012
  • 221200Z AUTO 15005KT CAVOK 32/10 Q1013
  • 221130Z AUTO 16005KT CAVOK 32/10 Q1013
  • 221100Z AUTO VRB04KT CAVOK 31/08 Q1013

Expired Forecast.



MET'MAP, your aeronautical weather chart ! - Copyright ORBIFLY December 2007 - Disclaimer

ORBIFLY MET'MAP TEAM :

Programming & Development : Alexandra Zaïnal
Original concept : Baudouin d'Aumeries
Technical & hardware support : Manuel Goepfert
Assistance : Marc-Olivier Méhu

Contact : metmap@orbifly.com




SOURCES & CREDITS :

   NOAA